createdAt,value
2024-01-28T00:01:38.806Z,0.70
2024-01-28T00:06:47.440Z,0.50
2024-01-28T00:11:56.406Z,0.40
2024-01-28T00:17:06.672Z,0.30
2024-01-28T00:22:14.843Z,0.20
2024-01-28T00:27:23.576Z,0.10
2024-01-28T00:32:32.767Z,0.10
2024-01-28T00:37:41.491Z,0.10
2024-01-28T00:42:50.592Z,0.10
2024-01-28T00:47:59.510Z,0.10
2024-01-28T00:53:08.856Z,0.00
2024-01-28T00:58:17.918Z,0.00
2024-01-28T01:03:27.716Z,0.10
2024-01-28T01:08:36.139Z,0.10
2024-01-28T01:13:46.354Z,0.10
2024-01-28T01:18:45.198Z,0.20
2024-01-28T01:23:54.849Z,0.20
2024-01-28T01:29:04.323Z,0.10
2024-01-28T01:34:13.216Z,0.00
2024-01-28T01:39:21.572Z,-0.10
2024-01-28T01:44:31.013Z,-0.20
2024-01-28T01:49:39.827Z,-0.40
2024-01-28T01:54:48.443Z,-0.50
2024-01-28T01:59:57.360Z,-0.60
2024-01-28T02:05:06.964Z,-0.70
2024-01-28T02:10:17.142Z,-0.70
2024-01-28T02:15:16.066Z,-0.80
2024-01-28T02:20:26.124Z,-0.60
2024-01-28T02:25:25.223Z,-0.50
2024-01-28T02:30:35.327Z,-0.40
2024-01-28T02:35:34.491Z,-0.40
2024-01-28T02:40:43.537Z,-0.40
2024-01-28T02:45:52.736Z,-0.50
2024-01-28T02:51:01.892Z,-0.60
2024-01-28T02:56:11.101Z,-0.50
2024-01-28T03:01:19.982Z,-0.50
2024-01-28T03:06:29.483Z,-0.60
2024-01-28T03:11:38.091Z,-0.80
2024-01-28T03:16:47.280Z,-0.80
2024-01-28T03:21:55.625Z,-0.70
2024-01-28T03:27:04.083Z,-0.70
2024-01-28T03:32:12.510Z,-0.60
2024-01-28T03:37:21.369Z,-0.70
2024-01-28T03:42:31.194Z,-0.60
2024-01-28T03:47:41.516Z,-0.60
2024-01-28T03:52:48.449Z,-0.50
2024-01-28T03:57:57.138Z,-0.50
2024-01-28T04:03:06.139Z,-0.40
2024-01-28T04:08:14.750Z,-0.30
2024-01-28T04:13:23.812Z,-0.30
2024-01-28T04:18:33.970Z,-0.10
2024-01-28T04:23:32.620Z,-0.10
2024-01-28T04:28:42.112Z,-0.10
2024-01-28T04:33:51.299Z,-0.10
2024-01-28T04:39:01.037Z,-0.10
2024-01-28T04:44:10.281Z,-0.10
2024-01-28T04:49:19.495Z,-0.10
2024-01-28T04:54:28.424Z,-0.10
2024-01-28T04:59:38.549Z,-0.10
2024-01-28T05:04:38.367Z,-0.20
2024-01-28T05:09:47.996Z,-0.20
2024-01-28T05:14:56.718Z,-0.30
2024-01-28T05:20:06.897Z,-0.50
2024-01-28T05:25:05.900Z,-0.60
2024-01-28T05:30:14.891Z,-0.80
2024-01-28T05:35:32.431Z,-0.90
2024-01-28T05:40:34.418Z,-0.90
2024-01-28T05:45:33.172Z,-0.80
2024-01-28T05:50:42.460Z,-0.70
2024-01-28T05:55:51.628Z,-0.80
2024-01-28T06:01:00.820Z,-0.80
2024-01-28T06:06:09.695Z,-0.80
2024-01-28T06:11:18.480Z,-0.90
2024-01-28T06:16:27.330Z,-1.00
2024-01-28T06:21:36.833Z,-1.00
2024-01-28T06:26:45.848Z,-1.00
2024-01-28T06:31:54.543Z,-1.00
2024-01-28T06:37:03.367Z,-1.00
2024-01-28T06:42:12.521Z,-1.00
2024-01-28T06:47:21.511Z,-0.90
2024-01-28T06:52:31.356Z,-1.00
2024-01-28T06:57:40.713Z,-1.00
2024-01-28T07:02:50.509Z,-1.00
2024-01-28T07:07:59.204Z,-1.00
2024-01-28T07:13:10.049Z,-0.80
2024-01-28T07:18:18.426Z,-0.70
2024-01-28T07:23:27.679Z,-0.50
2024-01-28T07:28:36.334Z,-0.30
2024-01-28T07:33:45.923Z,-0.10
2024-01-28T07:38:55.100Z,0.20
2024-01-28T07:43:54.450Z,0.40
2024-01-28T07:49:04.885Z,0.60
2024-01-28T07:54:03.816Z,0.80
2024-01-28T07:59:12.757Z,1.00
2024-01-28T08:04:22.099Z,1.00
2024-01-28T08:09:31.494Z,1.00
2024-01-28T08:14:41.279Z,1.00
2024-01-28T08:19:50.211Z,1.20
2024-01-28T08:24:59.306Z,1.50
2024-01-28T08:30:08.230Z,1.70
2024-01-28T08:35:18.423Z,1.70
2024-01-28T08:40:17.034Z,1.70
2024-01-28T08:45:26.598Z,1.90
2024-01-28T08:50:35.036Z,2.10
2024-01-28T08:55:43.777Z,2.30
2024-01-28T09:00:52.575Z,2.50
2024-01-28T09:06:02.967Z,2.70
2024-01-28T09:11:09.790Z,3.10
2024-01-28T09:16:18.867Z,3.50
2024-01-28T09:21:27.965Z,4.00
2024-01-28T09:26:36.778Z,4.10
2024-01-28T09:31:50.977Z,4.20
2024-01-28T09:36:50.401Z,4.30
2024-01-28T09:41:59.167Z,4.40
2024-01-28T09:47:08.495Z,4.60
2024-01-28T09:52:17.981Z,4.80
2024-01-28T09:57:26.856Z,5.00
2024-01-28T10:02:35.623Z,5.20
2024-01-28T10:07:45.145Z,5.30
2024-01-28T10:12:54.514Z,5.10
2024-01-28T10:18:03.297Z,5.10
2024-01-28T10:23:12.466Z,5.20
2024-01-28T10:28:21.804Z,5.30
2024-01-28T10:33:30.700Z,5.10
2024-01-28T10:38:39.473Z,4.80
2024-01-28T10:43:47.951Z,4.80
2024-01-28T10:48:57.176Z,4.90
2024-01-28T10:54:05.536Z,4.90
2024-01-28T10:59:14.828Z,4.80
2024-01-28T11:04:23.777Z,4.70
2024-01-28T11:09:32.755Z,4.70
2024-01-28T11:14:43.648Z,4.70
2024-01-28T11:19:49.658Z,4.60
2024-01-28T11:24:58.435Z,4.50
2024-01-28T11:30:07.420Z,4.50
2024-01-28T11:35:16.395Z,4.40
2024-01-28T11:40:25.677Z,4.40
2024-01-28T11:45:33.959Z,4.30
2024-01-28T11:50:42.819Z,4.20
2024-01-28T11:55:51.248Z,4.10
2024-01-28T12:01:00.535Z,4.10
2024-01-28T12:06:09.068Z,4.10
2024-01-28T12:11:18.413Z,4.20
2024-01-28T12:16:27.355Z,4.20
2024-01-28T12:21:36.166Z,4.20
2024-01-28T12:26:44.055Z,4.10
2024-01-28T12:31:53.182Z,4.10
2024-01-28T12:37:02.216Z,4.10
2024-01-28T12:42:11.330Z,4.10
2024-01-28T12:47:19.758Z,4.00
2024-01-28T12:52:28.572Z,4.00
2024-01-28T12:57:37.656Z,4.00
2024-01-28T13:02:47.683Z,4.00
2024-01-28T13:07:46.868Z,4.00
2024-01-28T13:12:55.576Z,4.00
2024-01-28T13:18:05.481Z,4.00
2024-01-28T13:23:12.769Z,3.90
2024-01-28T13:28:22.361Z,3.90
2024-01-28T13:33:32.942Z,3.90
2024-01-28T13:38:31.996Z,4.00
2024-01-28T13:43:40.935Z,3.90
2024-01-28T13:48:49.972Z,3.90
2024-01-28T13:53:58.763Z,3.80
2024-01-28T13:59:07.891Z,3.70
2024-01-28T14:04:16.535Z,3.60
2024-01-28T14:09:26.941Z,3.60
2024-01-28T14:14:25.652Z,3.60
2024-01-28T14:19:34.945Z,3.50
2024-01-28T14:24:44.119Z,3.40
2024-01-28T14:29:54.239Z,3.30
2024-01-28T14:34:53.328Z,3.20
2024-01-28T14:40:01.857Z,3.00
2024-01-28T14:45:10.418Z,2.80
2024-01-28T14:50:19.629Z,2.60
2024-01-28T14:55:28.538Z,2.40
2024-01-28T15:00:39.217Z,2.20
2024-01-28T15:05:37.735Z,2.10
2024-01-28T15:10:47.038Z,2.00
2024-01-28T15:15:55.885Z,1.90
2024-01-28T15:21:04.392Z,1.80
2024-01-28T15:26:13.524Z,1.80
2024-01-28T15:31:22.637Z,1.70
2024-01-28T15:36:31.299Z,1.70
2024-01-28T15:41:42.341Z,1.70
2024-01-28T15:46:41.417Z,1.60
2024-01-28T15:51:50.831Z,1.60
2024-01-28T15:56:59.355Z,1.60
2024-01-28T16:02:09.321Z,1.60
2024-01-28T16:07:18.213Z,1.40
2024-01-28T16:12:27.189Z,1.30
2024-01-28T16:17:36.064Z,1.20
2024-01-28T16:22:45.225Z,1.00
2024-01-28T16:27:54.262Z,0.90
2024-01-28T16:33:03.822Z,1.00
2024-01-28T16:38:13.831Z,1.00
2024-01-28T16:43:12.756Z,1.00
2024-01-28T16:48:22.770Z,1.10
2024-01-28T16:53:32.356Z,1.10
2024-01-28T16:58:41.718Z,0.90
2024-01-28T17:03:50.816Z,0.60
2024-01-28T17:09:01.080Z,0.40
2024-01-28T17:14:00.161Z,0.40
2024-01-28T17:19:08.821Z,0.50
2024-01-28T17:24:17.902Z,0.60
2024-01-28T17:29:26.937Z,0.80
2024-01-28T17:34:35.863Z,1.00
2024-01-28T17:39:44.565Z,1.10
2024-01-28T17:44:53.730Z,1.10
2024-01-28T17:50:02.805Z,1.20
2024-01-28T17:55:11.773Z,1.20
2024-01-28T18:00:21.332Z,1.10
2024-01-28T18:05:30.617Z,0.80
2024-01-28T18:10:39.460Z,0.60
2024-01-28T18:15:48.761Z,0.70
2024-01-28T18:20:57.437Z,0.60
2024-01-28T18:26:06.344Z,0.60
2024-01-28T18:31:15.307Z,0.80
2024-01-28T18:36:25.697Z,0.90
2024-01-28T18:41:24.201Z,0.80
2024-01-28T18:46:33.604Z,0.60
2024-01-28T18:51:42.626Z,0.30
2024-01-28T18:56:52.508Z,0.20
2024-01-28T19:02:01.439Z,0.20
2024-01-28T19:07:10.992Z,0.20
2024-01-28T19:12:19.903Z,0.40
2024-01-28T19:17:28.843Z,0.40
2024-01-28T19:22:37.264Z,0.50
2024-01-28T19:27:46.275Z,0.50
2024-01-28T19:32:55.300Z,0.60
2024-01-28T19:38:04.544Z,0.60
2024-01-28T19:43:14.425Z,0.70
2024-01-28T19:48:26.903Z,0.50
2024-01-28T19:53:25.556Z,0.40
2024-01-28T19:58:34.985Z,0.40
2024-01-28T20:03:45.027Z,0.40
2024-01-28T20:08:55.217Z,0.40
2024-01-28T20:13:56.300Z,0.40
2024-01-28T20:18:56.245Z,0.50
2024-01-28T20:24:04.466Z,0.60
2024-01-28T20:29:14.062Z,0.70
2024-01-28T20:34:23.002Z,0.80
2024-01-28T20:39:33.473Z,0.90
2024-01-28T20:44:32.327Z,1.00
2024-01-28T20:49:41.838Z,1.00
2024-01-28T20:54:51.419Z,1.10
2024-01-28T21:00:00.556Z,1.10
2024-01-28T21:05:09.133Z,1.20
2024-01-28T21:10:19.649Z,1.20
2024-01-28T21:15:27.848Z,1.20
2024-01-28T21:20:37.160Z,1.30
2024-01-28T21:25:46.161Z,1.30
2024-01-28T21:30:55.038Z,1.30
2024-01-28T21:36:03.588Z,1.30
2024-01-28T21:41:13.025Z,1.30
2024-01-28T21:46:22.225Z,1.30
2024-01-28T21:51:32.350Z,1.40
2024-01-28T21:56:31.061Z,1.40
2024-01-28T22:01:40.079Z,1.40
2024-01-28T22:06:48.656Z,1.10
2024-01-28T22:11:57.335Z,0.90
2024-01-28T22:17:06.064Z,0.70
2024-01-28T22:22:15.204Z,0.50
2024-01-28T22:27:23.629Z,0.50
2024-01-28T22:32:32.659Z,0.40
2024-01-28T22:37:41.980Z,0.20
2024-01-28T22:42:51.791Z,0.30
2024-01-28T22:48:00.617Z,0.50
2024-01-28T22:53:09.102Z,0.70
2024-01-28T22:58:17.568Z,0.80
2024-01-28T23:03:26.616Z,0.90
2024-01-28T23:08:35.940Z,1.00
2024-01-28T23:13:45.970Z,1.00
2024-01-28T23:18:54.596Z,1.00
2024-01-28T23:24:03.715Z,0.90
2024-01-28T23:29:12.212Z,0.90
2024-01-28T23:34:21.454Z,1.00
2024-01-28T23:39:30.270Z,1.00
2024-01-28T23:44:39.254Z,1.00
2024-01-28T23:49:48.069Z,1.10
2024-01-28T23:54:57.558Z,1.10
